TimeMST,TemperatureF,Dew PointF,Humidity,Sea Level PressureIn,VisibilityMPH,Wind Direction,Wind SpeedMPH,Gust SpeedMPH,PrecipitationIn,Events,Conditions,WindDirDegrees,DateUTC
12:58 AM,87.4,30.9,13,29.71,10.0,SSW,10.4,-,N/A,,Clear,200,2013-06-18 07:58:00
1:58 AM,84.6,30.9,14,29.70,10.0,SSW,8.1,-,N/A,,Clear,200,2013-06-18 08:58:00
2:58 AM,81.1,34.3,19,29.72,10.0,WNW,6.9,-,N/A,,Clear,300,2013-06-18 09:58:00
3:58 AM,76.6,33.6,21,29.73,10.0,North,2.3,-,N/A,,Clear,10,2013-06-18 10:58:00
4:58 AM,76.3,36.5,24,29.74,10.0,North,1.2,-,N/A,,Clear,10,2013-06-18 11:58:00
5:58 AM,76.3,36.7,24,29.76,10.0,Variable,2.3,-,N/A,,Clear,0,2013-06-18 12:58:00
6:58 AM,78.6,37.2,23,29.78,10.0,NNE,2.3,-,N/A,,Clear,30,2013-06-18 13:58:00
7:58 AM,84.9,34.5,16,29.79,10.0,Calm,Calm,-,N/A,,Clear,0,2013-06-18 14:58:00
8:58 AM,89.8,32.2,13,29.79,10.0,SE,4.6,-,N/A,,Clear,140,2013-06-18 15:58:00
9:58 AM,93.0,32.2,12,29.78,10.0,Variable,2.3,-,N/A,,Clear,0,2013-06-18 16:58:00
10:58 AM,95.7,31.5,10,29.77,10.0,Variable,5.8,-,N/A,,Clear,0,2013-06-18 17:58:00
11:58 AM,99.0,30.9,9,29.75,10.0,SSW,6.9,-,N/A,,Partly Cloudy,200,2013-06-18 18:58:00
12:58 PM,100.8,30.0,8,29.75,10.0,Variable,3.5,-,N/A,,Partly Cloudy,0,2013-06-18 19:58:00
1:58 PM,102.4,27.9,7,29.72,10.0,WNW,4.6,-,N/A,,Clear,290,2013-06-18 20:58:00
2:58 PM,103.8,21.0,5,29.70,10.0,WSW,8.1,-,N/A,,Clear,250,2013-06-18 21:58:00
3:58 PM,105.4,22.1,5,29.67,10.0,SW,6.9,-,N/A,,Clear,220,2013-06-18 22:58:00
4:58 PM,105.4,18.0,4,29.65,10.0,SW,16.1,-,N/A,,Clear,220,2013-06-18 23:58:00
5:58 PM,104.9,16.5,4,29.63,10.0,SW,15.0,-,N/A,,Clear,230,2013-06-19 00:58:00
6:58 PM,102.6,21.7,6,29.63,10.0,SW,8.1,-,N/A,,Clear,230,2013-06-19 01:58:00
7:58 PM,96.6,26.8,8,29.63,10.0,SW,6.9,-,N/A,,Clear,230,2013-06-19 02:58:00
8:58 PM,92.1,28.2,10,29.63,10.0,West,5.8,-,N/A,,Clear,260,2013-06-19 03:58:00
9:58 PM,88.3,38.3,17,29.64,10.0,West,4.6,-,N/A,,Clear,260,2013-06-19 04:58:00
10:58 PM,86.4,33.6,15,29.65,10.0,SSW,5.8,-,N/A,,Clear,210,2013-06-19 05:58:00
11:58 PM,86.2,26.4,11,29.64,10.0,South,5.8,-,N/A,,Clear,180,2013-06-19 06:58:00